Time;durP1;ratioP1;P1;durP2;ratioP2;P2;SDS_P1;SDS_P2;PMS_P1;PMS_P2;Temp;Humidity;BMP_temperature;BMP_pressure;BME280_temperature;BME280_humidity;BME280_pressure;Samples;Min_cycle;Max_cycle;Signal;HPM_P1;HPM_P2
2023/01/24 00:03:57;;;;;;;13.47;5.80;;;3.90;99.90;;;1.41;100.00;101381.56;10439400;28;20091;-78
2023/01/24 00:09:00;;;;;;;13.87;7.13;;;3.90;99.90;;;1.41;100.00;101389.44;10451219;28;20061;-78
2023/01/24 00:14:03;;;;;;;15.53;7.53;;;3.80;99.90;;;1.38;100.00;101386.94;10442493;28;20072;-78
2023/01/24 00:19:06;;;;;;;13.03;7.30;;;3.80;99.90;;;1.36;100.00;101388.81;10449602;28;20430;-78
2023/01/24 00:24:09;;;;;;;13.83;6.77;;;3.80;99.90;;;1.32;100.00;101389.00;10431800;28;20526;-78
2023/01/24 00:29:13;;;;;;;14.43;6.50;;;3.80;99.90;;;1.30;100.00;101392.59;10463950;28;20463;-78
2023/01/24 00:34:16;;;;;;;15.70;7.60;;;3.80;99.90;;;1.32;100.00;101399.47;10434136;28;20065;-78
2023/01/24 00:39:19;;;;;;;17.17;7.43;;;3.80;99.90;;;1.31;100.00;101399.53;10459876;28;20061;-78
2023/01/24 00:44:21;;;;;;;12.90;6.50;;;3.80;99.90;;;1.33;100.00;101409.00;10440804;28;20132;-78
2023/01/24 00:49:24;;;;;;;13.30;6.43;;;3.80;99.90;;;1.29;100.00;101412.72;10474054;28;20512;-78
2023/01/24 00:54:28;;;;;;;10.67;4.93;;;3.80;99.90;;;1.24;100.00;101412.09;10456778;28;20063;-78
2023/01/24 00:59:30;;;;;;;13.63;6.90;;;3.80;99.90;;;1.22;100.00;101426.19;10475998;28;20065;-78
2023/01/24 01:04:33;;;;;;;14.83;5.77;;;3.70;99.90;;;1.17;100.00;101429.03;10458790;28;20069;-77
2023/01/24 01:09:36;;;;;;;11.80;5.63;;;3.70;99.90;;;1.14;100.00;101433.56;10425333;28;20061;-77
2023/01/24 01:14:39;;;;;;;16.83;7.13;;;3.60;99.90;;;1.09;100.00;101433.00;10463203;28;20144;-78
2023/01/24 01:19:43;;;;;;;17.97;7.53;;;3.60;99.90;;;1.07;100.00;101441.75;10450414;28;20120;-77
2023/01/24 01:24:46;;;;;;;18.53;9.00;;;3.50;99.90;;;1.06;100.00;101441.81;10428231;28;20582;-77
2023/01/24 01:29:49;;;;;;;19.00;8.30;;;3.50;99.90;;;1.04;100.00;101441.06;10449513;28;20062;-78
2023/01/24 01:34:52;;;;;;;16.33;7.93;;;3.50;99.90;;;1.04;100.00;101446.28;10450911;28;20491;-78
2023/01/24 01:39:55;;;;;;;19.10;8.47;;;3.50;99.90;;;1.06;100.00;101434.81;10452753;28;20065;-78
2023/01/24 01:45:44;;;;;;;19.60;8.70;;;3.50;99.90;;;1.08;100.00;101447.84;10472372;28;20061;-77
2023/01/24 01:51:19;;;;;;;16.03;8.20;;;3.50;99.90;;;1.09;100.00;101462.63;10449539;28;20423;-78
2023/01/24 01:56:47;;;;;;;17.03;7.57;;;3.50;99.90;;;1.10;100.00;101468.72;10440999;28;20080;-78
2023/01/24 02:01:52;;;;;;;16.90;6.90;;;3.60;99.90;;;1.07;100.00;101464.47;10480596;28;20140;-78
2023/01/24 02:07:22;;;;;;;18.93;8.50;;;3.50;99.90;;;1.03;100.00;101461.16;10438465;28;20064;-78
2023/01/24 02:12:35;;;;;;;16.97;7.90;;;3.50;99.90;;;1.02;100.00;101458.59;10475266;28;20058;-78
2023/01/24 02:17:40;;;;;;;15.37;7.50;;;3.50;99.90;;;1.02;100.00;101469.06;10439836;28;20134;-78
2023/01/24 02:23:03;;;;;;;19.40;8.20;;;3.50;99.90;;;0.99;100.00;101470.06;10444431;28;20132;-78
2023/01/24 02:28:08;;;;;;;15.80;7.20;;;3.50;99.90;;;0.96;100.00;101470.25;10441098;28;20053;-78
2023/01/24 02:33:17;;;;;;;16.73;7.57;;;3.40;99.90;;;0.91;100.00;101467.00;10458591;28;20057;-78
2023/01/24 02:38:28;;;;;;;16.60;7.77;;;3.40;99.90;;;0.87;100.00;101472.44;10443494;28;20061;-78
2023/01/24 02:43:31;;;;;;;17.37;8.50;;;3.30;99.90;;;0.82;100.00;101466.59;10474522;28;20529;-78
2023/01/24 02:48:34;;;;;;;16.40;8.10;;;3.30;99.90;;;0.79;100.00;101471.06;10421976;28;20068;-78
2023/01/24 02:53:39;;;;;;;19.60;8.20;;;3.20;99.90;;;0.78;100.00;101472.00;10494260;28;20064;-78
2023/01/24 02:58:42;;;;;;;48.53;25.70;;;3.20;99.90;;;0.75;100.00;101476.50;10440149;28;20525;-78
2023/01/24 03:03:46;;;;;;;80.10;39.03;;;3.30;99.90;;;0.80;100.00;101474.53;10441850;28;20096;-79
2023/01/24 03:08:49;;;;;;;58.13;28.97;;;3.30;99.90;;;0.82;100.00;101471.81;10474863;28;20049;-79
2023/01/24 03:35:20;;;;;;;88.40;37.50;;;3.40;99.90;;;0.92;100.00;101486.16;10457567;28;20061;-79
2023/01/24 03:40:23;;;;;;;134.83;55.93;;;3.40;99.90;;;0.92;100.00;101492.25;10467921;28;20066;-79
2023/01/24 03:45:30;;;;;;;190.33;71.53;;;3.40;99.90;;;0.95;100.00;101501.69;10458304;28;20064;-79
2023/01/24 03:56:01;;;;;;;79.70;31.47;;;3.40;99.90;;;0.94;100.00;101495.63;10460076;28;20143;-79
2023/01/24 04:01:04;;;;;;;83.33;30.20;;;3.40;99.90;;;0.94;100.00;101498.25;10423378;28;20100;-79
2023/01/24 04:06:08;;;;;;;52.37;23.83;;;3.40;99.90;;;0.93;100.00;101498.31;10475686;28;20057;-79
2023/01/24 04:11:11;;;;;;;46.80;18.37;;;3.40;99.90;;;0.90;100.00;101498.47;10426268;28;20102;-79
2023/01/24 04:16:14;;;;;;;31.77;14.17;;;3.40;99.90;;;0.86;100.00;101500.41;10428963;28;20066;-79
2023/01/24 04:21:17;;;;;;;35.30;14.23;;;3.40;99.90;;;0.86;100.00;101507.41;10432486;28;20149;-78
2023/01/24 04:26:20;;;;;;;28.87;13.43;;;3.30;99.90;;;0.87;100.00;101506.47;10413179;28;20503;-79
2023/01/24 04:31:23;;;;;;;37.00;17.97;;;3.30;99.90;;;0.84;100.00;101501.38;10454930;28;20057;-79
2023/01/24 04:36:26;;;;;;;38.53;17.63;;;3.30;99.90;;;0.85;100.00;101503.09;10426062;28;20061;-79
2023/01/24 04:41:29;;;;;;;24.23;12.70;;;3.30;99.90;;;0.86;100.00;101507.41;10457595;28;20057;-78
2023/01/24 04:46:32;;;;;;;20.13;9.27;;;3.30;99.90;;;0.86;100.00;101510.00;10428810;28;20146;-78
2023/01/24 04:51:35;;;;;;;17.03;7.53;;;3.30;99.90;;;0.85;100.00;101503.09;10456885;28;20140;-78
2023/01/24 04:56:38;;;;;;;12.43;6.33;;;3.30;99.90;;;0.85;100.00;101513.56;10438581;28;20107;-79
2023/01/24 05:01:41;;;;;;;17.17;7.00;;;3.30;99.90;;;0.89;100.00;101515.09;10426293;28;20872;-79
2023/01/24 05:06:44;;;;;;;15.47;7.33;;;3.40;99.90;;;0.91;100.00;101518.50;10490632;28;20474;-78
2023/01/24 05:11:47;;;;;;;14.90;6.53;;;3.40;99.90;;;0.91;100.00;101508.03;10433257;28;20057;-80
2023/01/24 05:16:50;;;;;;;15.43;7.40;;;3.40;99.90;;;0.94;100.00;101521.78;10436253;28;20064;-79
2023/01/24 05:21:53;;;;;;;16.33;8.43;;;3.40;99.90;;;0.95;100.00;101527.88;10429934;28;20061;-79
2023/01/24 05:26:56;;;;;;;20.27;8.73;;;3.40;99.90;;;0.94;100.00;101534.03;10415807;28;20064;-79
2023/01/24 05:32:00;;;;;;;19.67;9.13;;;3.40;99.90;;;0.91;100.00;101529.81;10447636;28;20546;-80
2023/01/24 05:37:03;;;;;;;19.50;8.63;;;3.40;99.90;;;0.88;100.00;101529.94;10458634;28;20554;-79
2023/01/24 05:42:05;;;;;;;20.23;9.20;;;3.40;99.90;;;0.88;100.00;101535.19;10426321;28;20065;-79
2023/01/24 05:47:08;;;;;;;22.47;9.57;;;3.30;99.90;;;0.89;100.00;101536.03;10459896;28;20062;-79
2023/01/24 05:52:11;;;;;;;21.47;9.03;;;3.30;99.90;;;0.86;100.00;101544.88;10458745;28;20135;-79
2023/01/24 05:57:15;;;;;;;16.97;7.90;;;3.30;99.90;;;0.86;100.00;101541.41;10423724;28;20065;-79
2023/01/24 06:02:18;;;;;;;16.17;7.97;;;3.30;99.90;;;0.87;100.00;101545.72;10441402;28;20054;-78
2023/01/24 06:07:21;;;;;;;20.63;8.83;;;3.30;99.90;;;0.87;100.00;101550.97;10428048;28;20063;-84
2023/01/24 06:12:24;;;;;;;19.27;8.10;;;3.30;99.90;;;0.84;100.00;101551.09;10424873;28;20422;-84
2023/01/24 06:17:27;;;;;;;18.80;8.07;;;3.30;99.90;;;0.83;100.00;101558.09;10467289;28;20065;-84
2023/01/24 06:22:59;;;;;;;14.60;7.10;;;3.30;99.90;;;0.83;100.00;101562.50;10449045;28;20065;-80
2023/01/24 06:28:03;;;;;;;15.87;7.70;;;3.30;99.90;;;0.79;100.00;101570.50;10448348;28;20061;-79
2023/01/24 06:33:45;;;;;;;18.70;8.60;;;3.30;99.90;;;0.77;100.00;101579.31;10461508;28;20068;-79
2023/01/24 06:38:49;;;;;;;24.58;9.57;;;3.30;99.90;;;0.74;100.00;101579.47;10463140;28;20053;-79
2023/01/24 06:43:53;;;;;;;20.40;9.83;;;3.20;99.90;;;0.71;100.00;101580.44;10429185;28;20054;-79
2023/01/24 06:48:56;;;;;;;31.37;13.83;;;3.20;99.90;;;0.70;100.00;101584.00;10446787;28;20057;-79
2023/01/24 06:54:00;;;;;;;32.83;14.60;;;3.20;99.90;;;0.71;100.00;101580.44;10449045;28;20061;-80
2023/01/24 06:59:05;;;;;;;26.83;12.20;;;3.20;99.90;;;0.72;100.00;101581.28;10461462;28;20057;-79
2023/01/24 07:04:08;;;;;;;31.37;13.87;;;3.20;99.90;;;0.77;100.00;101582.78;10446807;28;20065;-80
2023/01/24 07:09:11;;;;;;;25.43;10.03;;;3.20;99.90;;;0.83;100.00;101583.41;10477101;28;20061;-79
2023/01/24 07:14:15;;;;;;;21.93;9.10;;;3.30;99.90;;;0.90;100.00;101588.31;10468027;28;20062;-80
2023/01/24 07:19:25;;;;;;;24.77;10.80;;;3.30;99.90;;;0.96;100.00;101584.53;10434626;28;20111;-79
2023/01/24 07:24:30;;;;;;;18.57;9.30;;;3.40;99.90;;;1.03;100.00;101580.72;10480038;28;20534;-80
2023/01/24 07:29:33;;;;;;;16.70;8.17;;;3.40;99.90;;;1.16;100.00;101591.47;10478944;28;20064;-79
2023/01/24 07:34:37;;;;;;;23.53;9.27;;;3.60;99.90;;;1.31;100.00;101590.72;10459510;28;20068;-80
2023/01/24 07:39:40;;;;;;;23.23;11.53;;;3.70;99.90;;;1.58;100.00;101604.25;10444675;28;20065;-79
2023/01/24 07:44:42;;;;;;;31.33;14.27;;;3.90;99.90;;;1.96;100.00;101604.06;10478083;28;20463;-79
2023/01/24 07:49:45;;;;;;;75.07;32.23;;;4.30;99.90;;;2.26;100.00;101618.22;10453709;28;20080;-80
2023/01/24 07:54:48;;;;;;;38.13;20.47;;;4.50;99.90;;;2.59;100.00;101612.16;10424885;28;20426;-79
2023/01/24 07:59:51;;;;;;;54.53;30.50;;;4.90;99.90;;;2.99;100.00;101612.59;10461218;28;20061;-78
2023/01/24 08:04:54;;;;;;;31.80;18.83;;;5.20;99.90;;;3.41;100.00;101614.59;10460250;28;20061;-78
2023/01/24 08:09:57;;;;;;;34.97;17.30;;;5.60;99.90;;;3.79;100.00;101612.41;10460629;28;20069;-77
2023/01/24 08:15:00;;;;;;;28.30;13.00;;;5.90;99.90;;;4.23;100.00;101619.44;10439212;28;20058;-79
2023/01/24 08:20:04;;;;;;;21.50;11.83;;;6.30;99.90;;;4.63;100.00;101607.31;10418073;28;20508;-78
2023/01/24 08:25:09;;;;;;;24.17;12.07;;;6.70;99.90;;;5.01;100.00;101611.97;10474872;28;20058;-78
2023/01/24 08:30:12;;;;;;;20.47;9.80;;;7.10;99.90;;;5.54;100.00;101608.47;10459233;28;20527;-78
2023/01/24 08:35:18;;;;;;;23.33;12.00;;;7.60;99.90;;;6.08;100.00;101623.41;10400504;28;20061;-79
2023/01/24 08:40:21;;;;;;;23.53;13.67;;;8.10;99.90;;;6.43;100.00;101631.56;10450421;28;20062;-78
2023/01/24 08:45:24;;;;;;;22.80;12.70;;;8.50;99.90;;;6.83;100.00;101619.00;10418755;28;20053;-78
2023/01/24 08:50:28;;;;;;;19.47;12.13;;;8.90;99.90;;;7.31;100.00;101626.16;10444002;28;20057;-78
2023/01/24 08:55:31;;;;;;;17.10;10.87;;;9.30;99.90;;;7.37;100.00;101621.28;10442861;28;20053;-78
2023/01/24 09:00:35;;;;;;;21.00;11.87;;;9.60;99.90;;;7.19;100.00;101623.47;10493004;28;20088;-78
2023/01/24 09:05:38;;;;;;;21.40;12.10;;;9.50;99.90;;;6.98;100.00;101633.78;10437875;28;20077;-77
2023/01/24 09:10:41;;;;;;;23.97;13.30;;;9.30;99.90;;;6.79;100.00;101636.06;10441969;28;20058;-79
2023/01/24 09:15:44;;;;;;;25.60;13.70;;;9.20;99.90;;;6.76;100.00;101623.03;10454290;28;20469;-78
2023/01/24 09:20:47;;;;;;;22.60;12.80;;;9.10;99.90;;;6.93;100.00;101632.44;10428550;28;20061;-78
2023/01/24 09:25:52;;;;;;;19.40;11.17;;;9.20;99.90;;;7.49;100.00;101638.03;10418031;28;20058;-79
2023/01/24 09:30:55;;;;;;;23.97;13.27;;;9.70;99.90;;;8.17;100.00;101632.03;10475741;28;20057;-78
2023/01/24 09:36:01;;;;;;;19.50;10.90;;;10.40;99.90;;;8.63;100.00;101635.59;10460803;28;20057;-78
2023/01/24 09:41:55;;;;;;;18.20;10.97;;;11.00;99.90;;;8.80;99.61;101619.22;10477041;28;20057;-78
2023/01/24 09:47:26;;;;;;;16.30;10.00;;;11.30;99.90;;;8.74;97.50;101615.25;10455849;28;20050;-78
2023/01/24 09:52:33;;;;;;;15.47;8.97;;;11.30;99.90;;;8.48;95.50;101613.81;10406889;28;20062;-78
2023/01/24 09:58:18;;;;;;;14.13;8.90;;;11.00;99.90;;;8.14;94.20;101620.81;10450340;28;20085;-78
2023/01/24 10:03:23;;;;;;;13.70;8.30;;;10.70;99.90;;;7.89;93.04;101609.47;10450691;28;20057;-78
2023/01/24 10:09:07;;;;;;;12.87;7.17;;;10.40;99.90;;;7.76;91.66;101614.00;10463824;28;20058;-78
2023/01/24 10:14:25;;;;;;;16.60;7.97;;;10.20;99.90;;;7.67;90.81;101596.16;10462094;28;20467;-78
2023/01/24 10:20:07;;;;;;;13.03;7.80;;;10.10;99.90;;;7.61;90.35;101607.19;10464169;28;20534;-78
2023/01/24 10:25:50;;;;;;;14.68;7.82;;;10.00;99.90;;;7.68;89.54;101598.72;10439186;28;20100;-79
2023/01/24 10:31:05;;;;;;;10.60;5.10;;;10.10;99.90;;;7.88;87.71;101588.41;10490448;28;20136;-79
2023/01/24 10:36:15;;;;;;;9.10;4.93;;;10.40;99.90;;;8.11;85.43;101582.19;10464002;28;20065;-78
2023/01/24 10:41:23;;;;;;;6.83;4.70;;;10.70;99.90;;;8.52;84.88;101576.38;10461979;28;20065;-78
2023/01/24 10:46:53;;;;;;;7.60;4.60;;;11.20;99.90;;;8.90;83.33;101556.56;10430462;28;20065;-78
2023/01/24 10:52:20;;;;;;;7.33;4.37;;;11.60;99.90;;;9.08;80.55;101554.22;10463423;28;20650;-78
2023/01/24 10:57:44;;;;;;;6.40;3.58;;;11.80;99.90;;;9.52;78.70;101545.22;10451977;28;20489;-79
2023/01/24 11:02:51;;;;;;;5.75;3.63;;;12.30;99.90;;;10.04;75.15;101534.69;10405840;28;20435;-78
2023/01/24 11:08:00;;;;;;;4.30;3.20;;;13.00;99.90;;;10.15;73.28;101532.78;10405980;28;20180;-79
2023/01/24 11:13:23;;;;;;;6.13;3.23;;;13.10;99.90;;;10.01;73.37;101530.44;10430053;28;20541;-78
2023/01/24 11:18:27;;;;;;;4.60;3.13;;;12.90;99.90;;;9.85;70.02;101516.81;10495579;28;20065;-78
2023/01/24 11:23:30;;;;;;;5.57;2.80;;;12.70;99.90;;;9.77;71.04;101508.66;10445056;28;20080;-78
2023/01/24 11:28:37;;;;;;;6.87;3.00;;;12.50;99.90;;;9.58;71.61;101509.38;10459949;28;20058;-78
2023/01/24 11:34:28;;;;;;;6.23;3.23;;;12.20;99.90;;;9.30;72.41;101494.94;10462639;28;20065;-78
2023/01/24 11:40:17;;;;;;;4.87;3.27;;;11.90;99.90;;;9.04;72.93;101492.63;10460655;28;20554;-78
2023/01/24 11:46:04;;;;;;;4.57;2.73;;;11.60;99.90;;;8.87;73.47;101494.97;10448210;28;20065;-78
2023/01/24 11:51:22;;;;;;;4.73;2.80;;;11.30;99.90;;;8.62;73.15;101490.84;10440730;28;20493;-78
2023/01/24 11:56:53;;;;;;;5.07;2.60;;;11.10;99.90;;;8.44;73.92;101494.00;10436922;28;20061;-78
2023/01/24 12:03:02;;;;;;;5.63;3.03;;;10.90;99.90;;;8.31;73.95;101490.59;10444603;28;20060;-78
2023/01/24 12:08:43;;;;;;;5.73;3.37;;;10.80;99.90;;;8.25;74.48;101485.78;10417418;28;20062;-78
2023/01/24 12:14:42;;;;;;;7.67;3.63;;;10.70;99.90;;;8.26;74.77;101488.31;10433556;28;20061;-79
2023/01/24 12:20:22;;;;;;;5.03;2.73;;;10.70;99.90;;;8.34;75.30;101482.44;10432729;28;20518;-79
2023/01/24 12:25:42;;;;;;;6.50;3.20;;;10.70;99.90;;;8.43;75.41;101481.72;10446911;28;20069;-78
2023/01/24 12:30:54;;;;;;;6.63;3.37;;;10.90;99.90;;;8.40;74.21;101481.13;10439503;28;20064;-78
2023/01/24 12:36:26;;;;;;;5.10;2.50;;;10.90;99.90;;;8.29;74.20;101487.25;10459469;28;20495;-79
2023/01/24 12:41:35;;;;;;;5.00;2.20;;;10.80;99.90;;;8.15;73.60;101488.31;10397798;28;20057;-78
2023/01/24 12:47:00;;;;;;;7.70;3.50;;;10.60;99.90;;;8.03;74.73;101470.75;10443378;28;20072;-78
2023/01/24 12:52:42;;;;;;;7.17;3.60;;;10.50;99.90;;;7.91;75.39;101469.06;10460120;28;20151;-78
2023/01/24 12:58:27;;;;;;;9.88;4.60;;;10.30;99.90;;;7.80;74.79;101472.56;10474187;28;20469;-78
2023/01/24 13:04:25;;;;;;;9.70;5.03;;;10.20;99.90;;;7.68;75.04;101469.06;10448028;28;20089;-78
2023/01/24 13:09:34;;;;;;;11.17;5.53;;;10.00;99.90;;;7.56;73.99;101472.66;10426406;28;20064;-78
2023/01/24 13:14:54;;;;;;;11.77;4.73;;;9.90;99.90;;;7.43;74.71;101474.50;10436050;28;20057;-78
2023/01/24 13:20:15;;;;;;;11.60;4.67;;;9.80;99.90;;;7.31;75.97;101478.94;10426021;28;20054;-79
2023/01/24 13:26:04;;;;;;;11.60;5.10;;;9.70;99.90;;;7.20;77.13;101485.03;10426351;28;20100;-78
2023/01/24 13:31:07;;;;;;;58.33;15.63;;;9.50;99.90;;;7.15;77.50;101486.34;10457945;28;20057;-79
2023/01/24 13:36:21;;;;;;;24.30;16.00;;;9.50;99.90;;;7.12;76.87;101473.34;10464686;28;20080;-78
2023/01/24 13:41:25;;;;;;;15.03;9.13;;;9.40;99.90;;;7.11;76.20;101480.44;10463970;28;20423;-79
2023/01/24 13:46:43;;;;;;;9.53;4.87;;;9.40;99.90;;;7.10;75.98;101484.03;10496480;28;20068;-78
2023/01/24 13:51:50;;;;;;;7.87;4.43;;;9.40;99.90;;;7.12;76.79;101479.47;10446343;28;20061;-78
2023/01/24 13:57:18;;;;;;;9.60;5.13;;;9.50;99.90;;;7.10;77.67;101478.75;10464964;28;20065;-78
2023/01/24 14:02:36;;;;;;;10.83;4.90;;;9.50;99.90;;;7.07;79.03;101478.13;10455301;28;20507;-79
2023/01/24 14:07:40;;;;;;;13.33;5.10;;;9.40;99.90;;;7.04;79.35;101476.56;10408566;28;20054;-78
2023/01/24 14:12:54;;;;;;;13.57;5.17;;;9.40;99.90;;;7.02;80.31;101483.78;10408361;28;20526;-79
2023/01/24 14:17:57;;;;;;;13.97;6.53;;;9.40;99.90;;;6.92;80.57;101475.66;10430577;28;20061;-79
2023/01/24 14:23:10;;;;;;;10.67;5.47;;;9.30;99.90;;;6.79;80.15;101485.47;10463286;28;20080;-78
2023/01/24 14:28:32;;;;;;;27.93;9.43;;;9.20;99.90;;;6.64;80.48;101484.75;10459590;28;20080;-78
2023/01/24 14:34:28;;;;;;;16.00;7.03;;;9.00;99.90;;;6.48;81.44;101484.19;10446145;28;20107;-79
2023/01/24 14:39:31;;;;;;;16.43;7.33;;;8.90;99.90;;;6.31;82.18;101479.28;10487773;28;20168;-79
2023/01/24 14:44:38;;;;;;;26.10;11.07;;;8.70;99.90;;;6.11;82.73;101494.69;10417835;28;20080;-79
2023/01/24 14:49:49;;;;;;;22.77;9.03;;;8.50;99.90;;;5.88;84.12;101496.28;10480554;28;20433;-78
2023/01/24 14:55:25;;;;;;;24.30;9.30;;;8.30;99.90;;;5.59;84.55;101500.06;10445737;28;20057;-78
2023/01/24 15:00:28;;;;;;;17.87;8.73;;;8.00;99.90;;;5.33;85.43;101494.75;10446359;28;20058;-78
2023/01/24 15:05:35;;;;;;;15.63;8.07;;;7.70;99.90;;;5.12;86.39;101508.50;10413997;28;20061;-78
2023/01/24 15:10:40;;;;;;;18.93;9.03;;;7.50;99.90;;;4.93;87.03;101509.72;10424099;28;20057;-77
2023/01/24 15:15:43;;;;;;;19.67;7.80;;;7.30;99.90;;;4.74;87.33;101511.84;10424477;28;20115;-78
2023/01/24 15:20:48;;;;;;;17.10;7.60;;;7.10;99.90;;;4.55;87.78;101526.16;10443826;28;20058;-78
2023/01/24 15:25:50;;;;;;;23.47;8.50;;;6.90;99.90;;;4.37;88.53;101523.84;10438513;28;20117;-78
2023/01/24 15:31:01;;;;;;;24.07;10.73;;;6.70;99.90;;;4.20;88.96;101535.44;10444713;28;20435;-78
2023/01/24 15:36:22;;;;;;;26.73;11.75;;;6.60;99.90;;;4.04;89.72;101543.41;10436984;28;20483;-78
2023/01/24 15:52:20;;;;;;;18.23;9.57;;;6.20;99.90;;;3.68;91.37;101549.06;10447255;28;20157;-78
2023/01/24 15:57:37;;;;;;;19.83;9.97;;;6.10;99.90;;;3.57;91.99;101548.84;10390586;28;20097;-78
2023/01/24 16:02:40;;;;;;;19.97;9.87;;;6.00;99.90;;;3.47;92.68;101556.41;10496551;28;20071;-79
2023/01/24 16:07:44;;;;;;;18.90;8.80;;;5.90;99.90;;;3.42;93.15;101555.88;10444092;28;20060;-79
2023/01/24 16:12:50;;;;;;;33.13;12.47;;;5.80;99.90;;;3.36;93.56;101559.69;10427563;28;20060;-79
2023/01/24 16:17:53;;;;;;;20.87;9.83;;;5.80;99.90;;;3.27;94.03;101562.84;10440911;28;20057;-79
2023/01/24 16:22:56;;;;;;;23.63;11.37;;;5.70;99.90;;;3.18;94.28;101561.59;10437434;28;20065;-79
2023/01/24 16:27:59;;;;;;;24.13;11.57;;;5.60;99.90;;;3.06;94.94;101566.66;10472861;28;20060;-78
2023/01/24 16:33:03;;;;;;;22.17;11.20;;;5.50;99.90;;;2.95;95.06;101564.66;10463048;28;20061;-78
2023/01/24 16:38:08;;;;;;;23.10;10.80;;;5.40;99.90;;;2.84;95.35;101567.03;10476376;28;20076;-79
2023/01/24 16:43:20;;;;;;;28.33;12.43;;;5.30;99.90;;;2.74;95.79;101557.97;10458725;28;20136;-78
2023/01/24 16:48:23;;;;;;;19.20;9.67;;;5.20;99.90;;;2.75;96.28;101564.91;10431171;28;20062;-79
2023/01/24 16:53:26;;;;;;;23.53;9.20;;;5.20;99.90;;;2.76;96.44;101559.59;10480673;28;20061;-78
2023/01/24 16:58:29;;;;;;;20.07;9.40;;;5.20;99.90;;;2.74;96.75;101566.69;10461250;28;20056;-78
2023/01/24 17:03:33;;;;;;;30.73;14.03;;;5.10;99.90;;;2.70;96.61;101575.66;10443345;28;20065;-78
2023/01/24 17:08:37;;;;;;;35.77;15.00;;;5.10;99.90;;;2.62;96.89;101583.09;10426244;28;20115;-78
2023/01/24 17:13:40;;;;;;;56.63;24.23;;;5.10;99.90;;;2.55;97.07;101577.34;10463122;28;20063;-78
2023/01/24 17:18:43;;;;;;;29.03;14.57;;;5.00;99.90;;;2.50;97.23;101583.75;10458822;28;20112;-78
2023/01/24 17:23:46;;;;;;;30.37;13.90;;;4.90;99.90;;;2.45;97.60;101581.38;10443210;28;20061;-78
2023/01/24 17:28:49;;;;;;;22.93;10.70;;;4.90;99.90;;;2.41;98.09;101591.19;10475387;28;20149;-78
2023/01/24 17:33:53;;;;;;;21.37;9.33;;;4.90;99.90;;;2.40;98.40;101588.66;10469254;28;20418;-78
2023/01/24 17:38:56;;;;;;;18.53;8.97;;;4.80;99.90;;;2.36;98.66;101593.22;10483083;28;20066;-78
2023/01/24 17:44:00;;;;;;;17.10;8.10;;;4.80;99.90;;;2.29;98.57;101597.09;10461753;28;20063;-78
2023/01/24 17:49:03;;;;;;;17.73;8.87;;;4.80;99.90;;;2.17;98.68;101591.66;10487856;28;20141;-78
2023/01/24 17:54:06;;;;;;;28.47;12.80;;;4.60;99.90;;;1.99;98.58;101596.91;10446815;28;20503;-78
2023/01/24 17:59:09;;;;;;;45.63;19.60;;;4.50;99.90;;;1.84;99.06;101616.03;10429484;28;20062;-78
2023/01/24 18:04:12;;;;;;;40.97;18.97;;;4.30;99.90;;;1.68;99.11;101600.25;10456187;28;20469;-78
2023/01/24 18:09:15;;;;;;;47.20;22.17;;;4.20;99.90;;;1.51;99.30;101601.06;10454788;28;20061;-78
2023/01/24 18:14:18;;;;;;;42.97;19.57;;;4.00;99.90;;;1.41;99.91;101594.59;10421381;28;20065;-78
2023/01/24 18:19:21;;;;;;;36.30;15.60;;;3.90;99.90;;;1.32;100.00;101592.44;10460354;28;20081;-78
2023/01/24 18:24:24;;;;;;;36.50;13.57;;;3.80;99.90;;;1.22;100.00;101597.25;10446521;28;20061;-78
2023/01/24 18:29:27;;;;;;;34.67;14.57;;;3.70;99.90;;;1.23;100.00;101603.34;10447547;28;20229;-78
2023/01/24 18:34:31;;;;;;;30.83;14.13;;;3.60;99.90;;;1.14;100.00;101598.53;10441867;28;20061;-78
2023/01/24 18:39:34;;;;;;;27.70;13.40;;;3.60;99.90;;;1.09;100.00;101605.78;10439995;28;20094;-78
2023/01/24 18:44:36;;;;;;;25.87;12.60;;;3.50;99.90;;;1.01;100.00;101600.88;10445439;28;20057;-78
2023/01/24 18:49:39;;;;;;;34.20;16.37;;;3.50;99.90;;;0.92;100.00;101599.56;10441684;28;20061;-78
2023/01/24 18:54:42;;;;;;;38.90;16.47;;;3.40;99.90;;;0.87;100.00;101600.69;10452468;28;20068;-78
2023/01/24 18:59:45;;;;;;;34.87;15.20;;;3.30;99.90;;;0.80;100.00;101611.44;10441602;28;20184;-78
2023/01/24 19:04:49;;;;;;;22.87;12.17;;;3.30;99.90;;;0.73;100.00;101604.78;10469887;28;20081;-79
2023/01/24 19:09:52;;;;;;;24.07;10.50;;;3.20;99.90;;;0.65;100.00;101604.28;10433405;28;20061;-79
2023/01/24 19:14:55;;;;;;;36.80;13.03;;;3.10;99.90;;;0.56;100.00;101607.31;10437293;28;20065;-79
2023/01/24 19:19:58;;;;;;;65.70;16.93;;;3.10;99.90;;;0.47;100.00;101603.34;10477304;28;20064;-78
2023/01/24 19:25:01;;;;;;;47.30;15.50;;;2.90;99.90;;;0.42;100.00;101607.97;10461790;28;20541;-78
2023/01/24 19:30:07;;;;;;;59.83;25.17;;;2.90;99.90;;;0.40;100.00;101612.38;10459965;28;20061;-79
2023/01/24 19:35:10;;;;;;;62.57;22.97;;;2.90;99.90;;;0.42;100.00;101613.19;10442491;28;20068;-78
2023/01/24 19:40:12;;;;;;;68.47;24.63;;;2.80;99.90;;;0.36;100.00;101623.03;10443208;28;20057;-79
2023/01/24 19:45:17;;;;;;;60.37;20.53;;;2.80;99.90;;;0.25;100.00;101629.63;10466105;28;20061;-78
2023/01/24 19:50:20;;;;;;;91.17;24.00;;;2.70;99.90;;;0.15;100.00;101633.53;10426968;28;20064;-77
2023/01/24 19:55:23;;;;;;;97.83;26.80;;;2.60;99.90;;;0.04;100.00;101627.91;10457161;28;20115;-79
2023/01/24 20:00:26;;;;;;;68.67;20.33;;;2.50;99.90;;;-0.05;100.00;101631.78;10447099;28;20064;-79
2023/01/24 20:05:29;;;;;;;87.27;25.90;;;2.40;99.90;;;-0.15;100.00;101627.00;10472284;28;20115;-78
2023/01/24 20:10:32;;;;;;;137.57;34.40;;;2.30;99.90;;;-0.22;100.00;101623.81;10463983;28;20115;-78
2023/01/24 20:15:35;;;;;;;85.20;26.80;;;2.30;99.90;;;-0.28;100.00;101630.13;10438443;28;20068;-78
2023/01/24 20:20:38;;;;;;;51.10;18.93;;;2.20;99.90;;;-0.35;100.00;101639.13;10405291;28;20061;-78
2023/01/24 20:25:41;;;;;;;54.57;22.00;;;2.20;99.90;;;-0.43;100.00;101640.34;10461150;28;20068;-79
2023/01/24 20:30:44;;;;;;;52.60;17.67;;;2.10;99.90;;;-0.49;100.00;101640.59;10459125;28;20140;-78
2023/01/24 20:35:47;;;;;;;89.57;25.97;;;2.00;99.90;;;-0.56;100.00;101640.00;10443759;28;20141;-79
2023/01/24 20:40:59;;;;;;;111.63;29.97;;;2.00;99.90;;;-0.62;100.00;101645.47;10475395;28;20152;-82
2023/01/24 20:46:06;;;;;;;97.75;29.02;;;1.90;99.90;;;-0.68;100.00;101643.09;10433071;28;20145;-81
2023/01/24 20:51:09;;;;;;;59.80;22.03;;;1.80;99.90;;;-0.77;100.00;101649.53;10454570;28;20061;-83
2023/01/24 20:56:22;;;;;;;145.57;39.43;;;1.80;99.90;;;-0.83;100.00;101641.94;10423122;28;20060;-79
2023/01/24 21:01:27;;;;;;;83.03;28.63;;;1.70;99.90;;;-0.91;100.00;101650.06;10429047;28;20057;-79
2023/01/24 21:06:34;;;;;;;92.17;31.30;;;1.60;99.90;;;-0.94;100.00;101649.34;10456795;28;20084;-79
2023/01/24 21:11:38;;;;;;;160.83;48.00;;;1.60;99.90;;;-0.95;100.00;101651.09;10474226;28;20161;-79
2023/01/24 21:16:41;;;;;;;108.50;41.53;;;1.60;99.90;;;-0.93;100.00;101646.66;10451520;28;20115;-79
2023/01/24 21:21:48;;;;;;;82.80;33.43;;;1.60;99.90;;;-0.92;100.00;101637.91;10425916;28;20079;-79
2023/01/24 21:26:51;;;;;;;67.73;29.17;;;1.60;99.90;;;-0.86;100.00;101652.50;10458434;28;20059;-79
2023/01/24 21:31:54;;;;;;;79.83;32.60;;;1.60;99.90;;;-0.89;100.00;101653.47;10447167;28;20120;-79
2023/01/24 21:36:57;;;;;;;69.53;29.33;;;1.60;99.90;;;-0.96;100.00;101644.19;10464252;28;20070;-79
2023/01/24 21:42:01;;;;;;;57.73;25.90;;;1.60;99.90;;;-1.02;100.00;101647.03;10447780;28;20065;-79
2023/01/24 21:47:05;;;;;;;82.27;30.73;;;1.50;99.90;;;-1.08;100.00;101636.78;10447072;28;20144;-79
2023/01/24 21:52:12;;;;;;;75.17;23.80;;;1.50;99.90;;;-1.17;100.00;101627.56;10459534;28;20510;-77